Terminal Aerodrome Forecast
Issued by NWS

Home | Current Version | Previous Version | Text Only | Print | Product List | Glossary On
Versions: 1 2 3 4 5 6 7 8 9 10 11 12 13 14 15 16
000
FTUS43 KIND 261310 AAA
TAFLAF
TAF AMD
KLAF 261310Z 2613/2712 21010KT P6SM SCT015 BKN050
      TEMPO 2613/2615 BKN015 OVC050
     FM261500 VRB15G30KT 6SM -TSRA BR BKN020CB
     FM261630 VRB06KT P6SM VCTS SCT025CB BKN100
     FM261800 21010KT P6SM VCTS SCT025CB BKN100
     FM270200 18007KT P6SM BKN100=

USA.gov is the U.S. government's official web portal to all federal, state and local government web resources and services.